sensor_id;sensor_type;location;lat;lon;timestamp;P1;durP1;ratioP1;P2;durP2;ratioP2
46563;SDS011;32291;52.010;4.446;2023-12-22T00:00:10;10.40;;;2.92;;
46563;SDS011;32291;52.010;4.446;2023-12-22T00:01:12;15.00;;;2.67;;
46563;SDS011;32291;52.010;4.446;2023-12-22T00:02:17;13.30;;;2.85;;
46563;SDS011;32291;52.010;4.446;2023-12-22T00:03:27;15.77;;;3.00;;
46563;SDS011;32291;52.010;4.446;2023-12-22T00:04:30;11.30;;;2.95;;
46563;SDS011;32291;52.010;4.446;2023-12-22T00:05:34;12.48;;;3.95;;
46563;SDS011;32291;52.010;4.446;2023-12-22T00:06:36;16.02;;;2.97;;
46563;SDS011;32291;52.010;4.446;2023-12-22T00:07:44;15.57;;;4.18;;
46563;SDS011;32291;52.010;4.446;2023-12-22T00:08:47;16.30;;;3.83;;
46563;SDS011;32291;52.010;4.446;2023-12-22T00:09:54;21.35;;;3.33;;
46563;SDS011;32291;52.010;4.446;2023-12-22T00:10:56;18.00;;;3.42;;
46563;SDS011;32291;52.010;4.446;2023-12-22T00:12:04;11.77;;;2.65;;
46563;SDS011;32291;52.010;4.446;2023-12-22T00:13:11;12.82;;;2.65;;
46563;SDS011;32291;52.010;4.446;2023-12-22T00:14:18;16.73;;;3.55;;
46563;SDS011;32291;52.010;4.446;2023-12-22T00:15:25;14.38;;;2.97;;
46563;SDS011;32291;52.010;4.446;2023-12-22T00:16:28;9.75;;;2.40;;
46563;SDS011;32291;52.010;4.446;2023-12-22T00:17:31;13.50;;;3.05;;
46563;SDS011;32291;52.010;4.446;2023-12-22T00:18:34;14.43;;;3.15;;
46563;SDS011;32291;52.010;4.446;2023-12-22T00:19:38;11.45;;;2.70;;
46563;SDS011;32291;52.010;4.446;2023-12-22T00:20:40;13.88;;;3.30;;
46563;SDS011;32291;52.010;4.446;2023-12-22T00:21:43;11.70;;;3.35;;
46563;SDS011;32291;52.010;4.446;2023-12-22T00:22:50;11.27;;;3.25;;
46563;SDS011;32291;52.010;4.446;2023-12-22T00:23:52;16.58;;;3.72;;
46563;SDS011;32291;52.010;4.446;2023-12-22T00:24:59;12.50;;;3.17;;
46563;SDS011;32291;52.010;4.446;2023-12-22T00:26:05;15.80;;;3.10;;
46563;SDS011;32291;52.010;4.446;2023-12-22T00:27:08;13.55;;;3.17;;
46563;SDS011;32291;52.010;4.446;2023-12-22T00:28:10;12.02;;;2.85;;
46563;SDS011;32291;52.010;4.446;2023-12-22T00:29:13;8.10;;;2.33;;
46563;SDS011;32291;52.010;4.446;2023-12-22T00:30:16;14.25;;;2.72;;
46563;SDS011;32291;52.010;4.446;2023-12-22T00:31:24;11.63;;;3.28;;
46563;SDS011;32291;52.010;4.446;2023-12-22T00:32:31;13.43;;;3.65;;
46563;SDS011;32291;52.010;4.446;2023-12-22T00:33:34;12.07;;;2.63;;
46563;SDS011;32291;52.010;4.446;2023-12-22T00:34:37;10.48;;;2.28;;
46563;SDS011;32291;52.010;4.446;2023-12-22T00:35:44;13.20;;;3.47;;
46563;SDS011;32291;52.010;4.446;2023-12-22T00:36:46;13.85;;;2.95;;
46563;SDS011;32291;52.010;4.446;2023-12-22T00:37:49;11.13;;;3.22;;
46563;SDS011;32291;52.010;4.446;2023-12-22T00:38:51;10.02;;;2.50;;
46563;SDS011;32291;52.010;4.446;2023-12-22T00:40:00;9.05;;;2.15;;
46563;SDS011;32291;52.010;4.446;2023-12-22T00:41:15;15.20;;;3.83;;
46563;SDS011;32291;52.010;4.446;2023-12-22T00:42:17;12.30;;;3.08;;
46563;SDS011;32291;52.010;4.446;2023-12-22T00:43:20;20.20;;;3.22;;
46563;SDS011;32291;52.010;4.446;2023-12-22T00:44:22;13.30;;;2.30;;
46563;SDS011;32291;52.010;4.446;2023-12-22T00:45:28;7.88;;;2.22;;
46563;SDS011;32291;52.010;4.446;2023-12-22T00:46:31;11.93;;;2.92;;
46563;SDS011;32291;52.010;4.446;2023-12-22T00:47:41;13.00;;;4.25;;
46563;SDS011;32291;52.010;4.446;2023-12-22T00:48:44;12.35;;;3.53;;
46563;SDS011;32291;52.010;4.446;2023-12-22T00:49:48;13.85;;;3.75;;
46563;SDS011;32291;52.010;4.446;2023-12-22T00:50:50;11.00;;;3.88;;
46563;SDS011;32291;52.010;4.446;2023-12-22T00:52:00;19.52;;;3.92;;
46563;SDS011;32291;52.010;4.446;2023-12-22T00:53:05;13.52;;;3.20;;
46563;SDS011;32291;52.010;4.446;2023-12-22T00:54:08;12.75;;;3.03;;
46563;SDS011;32291;52.010;4.446;2023-12-22T00:55:10;19.20;;;3.42;;
46563;SDS011;32291;52.010;4.446;2023-12-22T00:56:28;15.63;;;2.78;;
46563;SDS011;32291;52.010;4.446;2023-12-22T00:57:33;10.73;;;3.42;;
46563;SDS011;32291;52.010;4.446;2023-12-22T00:58:36;11.77;;;2.80;;
46563;SDS011;32291;52.010;4.446;2023-12-22T00:59:39;9.23;;;2.40;;
46563;SDS011;32291;52.010;4.446;2023-12-22T01:00:49;16.10;;;3.10;;
46563;SDS011;32291;52.010;4.446;2023-12-22T01:01:56;15.65;;;3.13;;
46563;SDS011;32291;52.010;4.446;2023-12-22T01:02:59;12.70;;;3.35;;
46563;SDS011;32291;52.010;4.446;2023-12-22T01:04:07;15.88;;;3.10;;
46563;SDS011;32291;52.010;4.446;2023-12-22T01:05:15;14.23;;;2.78;;
46563;SDS011;32291;52.010;4.446;2023-12-22T01:06:18;11.75;;;3.05;;
46563;SDS011;32291;52.010;4.446;2023-12-22T01:07:22;11.05;;;2.15;;
46563;SDS011;32291;52.010;4.446;2023-12-22T01:08:26;11.93;;;3.13;;
46563;SDS011;32291;52.010;4.446;2023-12-22T01:09:29;14.70;;;2.78;;
46563;SDS011;32291;52.010;4.446;2023-12-22T01:10:40;11.23;;;2.10;;
46563;SDS011;32291;52.010;4.446;2023-12-22T01:11:43;11.95;;;3.13;;
46563;SDS011;32291;52.010;4.446;2023-12-22T01:12:46;11.30;;;2.67;;
46563;SDS011;32291;52.010;4.446;2023-12-22T01:13:50;13.88;;;3.17;;
46563;SDS011;32291;52.010;4.446;2023-12-22T01:14:55;11.73;;;2.88;;
46563;SDS011;32291;52.010;4.446;2023-12-22T01:16:04;12.48;;;2.35;;
46563;SDS011;32291;52.010;4.446;2023-12-22T01:17:06;10.10;;;2.72;;
46563;SDS011;32291;52.010;4.446;2023-12-22T01:18:11;11.07;;;2.80;;
46563;SDS011;32291;52.010;4.446;2023-12-22T01:19:16;13.05;;;2.65;;
46563;SDS011;32291;52.010;4.446;2023-12-22T01:20:18;9.75;;;2.38;;
46563;SDS011;32291;52.010;4.446;2023-12-22T01:21:36;11.35;;;3.00;;
46563;SDS011;32291;52.010;4.446;2023-12-22T01:22:39;8.00;;;2.70;;
46563;SDS011;32291;52.010;4.446;2023-12-22T01:23:41;10.65;;;2.97;;
46563;SDS011;32291;52.010;4.446;2023-12-22T01:24:47;18.60;;;3.35;;
46563;SDS011;32291;52.010;4.446;2023-12-22T01:25:49;11.75;;;3.28;;
46563;SDS011;32291;52.010;4.446;2023-12-22T01:26:55;9.80;;;3.10;;
46563;SDS011;32291;52.010;4.446;2023-12-22T01:27:59;14.48;;;2.83;;
46563;SDS011;32291;52.010;4.446;2023-12-22T01:29:02;11.13;;;3.88;;
46563;SDS011;32291;52.010;4.446;2023-12-22T01:30:09;18.10;;;3.20;;
46563;SDS011;32291;52.010;4.446;2023-12-22T01:31:13;19.42;;;4.30;;
46563;SDS011;32291;52.010;4.446;2023-12-22T01:32:18;17.33;;;3.50;;
46563;SDS011;32291;52.010;4.446;2023-12-22T01:33:21;8.43;;;2.55;;
46563;SDS011;32291;52.010;4.446;2023-12-22T01:34:27;11.93;;;3.10;;
46563;SDS011;32291;52.010;4.446;2023-12-22T01:35:30;15.65;;;3.33;;
46563;SDS011;32291;52.010;4.446;2023-12-22T01:36:33;8.27;;;2.17;;
46563;SDS011;32291;52.010;4.446;2023-12-22T01:37:36;8.45;;;1.77;;
46563;SDS011;32291;52.010;4.446;2023-12-22T01:38:54;12.23;;;2.40;;
46563;SDS011;32291;52.010;4.446;2023-12-22T01:40:03;12.02;;;3.08;;
46563;SDS011;32291;52.010;4.446;2023-12-22T01:41:09;21.02;;;3.97;;
46563;SDS011;32291;52.010;4.446;2023-12-22T01:42:14;10.05;;;2.85;;
46563;SDS011;32291;52.010;4.446;2023-12-22T01:43:17;17.77;;;4.20;;
46563;SDS011;32291;52.010;4.446;2023-12-22T01:44:24;14.77;;;2.90;;
46563;SDS011;32291;52.010;4.446;2023-12-22T01:45:27;15.35;;;3.20;;
46563;SDS011;32291;52.010;4.446;2023-12-22T01:46:30;16.85;;;3.78;;
46563;SDS011;32291;52.010;4.446;2023-12-22T01:47:37;11.85;;;2.47;;
46563;SDS011;32291;52.010;4.446;2023-12-22T01:48:45;14.50;;;3.45;;
46563;SDS011;32291;52.010;4.446;2023-12-22T01:49:48;12.55;;;2.88;;
46563;SDS011;32291;52.010;4.446;2023-12-22T01:50:55;15.05;;;3.60;;
46563;SDS011;32291;52.010;4.446;2023-12-22T01:52:00;15.23;;;3.75;;
46563;SDS011;32291;52.010;4.446;2023-12-22T01:53:05;19.25;;;4.13;;
46563;SDS011;32291;52.010;4.446;2023-12-22T01:54:08;15.48;;;3.67;;
46563;SDS011;32291;52.010;4.446;2023-12-22T01:55:12;11.48;;;2.95;;
46563;SDS011;32291;52.010;4.446;2023-12-22T01:56:16;22.02;;;3.97;;
46563;SDS011;32291;52.010;4.446;2023-12-22T01:57:19;14.70;;;3.63;;
46563;SDS011;32291;52.010;4.446;2023-12-22T01:58:23;11.43;;;2.95;;
46563;SDS011;32291;52.010;4.446;2023-12-22T01:59:28;17.05;;;3.38;;
46563;SDS011;32291;52.010;4.446;2023-12-22T02:00:35;17.00;;;3.65;;
46563;SDS011;32291;52.010;4.446;2023-12-22T02:01:39;14.73;;;3.10;;
46563;SDS011;32291;52.010;4.446;2023-12-22T02:02:50;17.75;;;3.25;;
46563;SDS011;32291;52.010;4.446;2023-12-22T02:03:54;10.45;;;3.42;;
46563;SDS011;32291;52.010;4.446;2023-12-22T02:05:02;11.52;;;3.28;;
46563;SDS011;32291;52.010;4.446;2023-12-22T02:06:06;14.63;;;2.83;;
46563;SDS011;32291;52.010;4.446;2023-12-22T02:07:09;11.98;;;2.60;;
46563;SDS011;32291;52.010;4.446;2023-12-22T02:08:12;10.30;;;2.30;;
46563;SDS011;32291;52.010;4.446;2023-12-22T02:09:24;13.27;;;3.25;;
46563;SDS011;32291;52.010;4.446;2023-12-22T02:10:26;18.77;;;3.97;;
46563;SDS011;32291;52.010;4.446;2023-12-22T02:11:29;12.02;;;2.67;;
46563;SDS011;32291;52.010;4.446;2023-12-22T02:12:32;10.48;;;3.33;;
46563;SDS011;32291;52.010;4.446;2023-12-22T02:13:35;10.50;;;2.80;;
46563;SDS011;32291;52.010;4.446;2023-12-22T02:14:38;12.52;;;3.88;;
46563;SDS011;32291;52.010;4.446;2023-12-22T02:15:46;11.80;;;2.60;;
46563;SDS011;32291;52.010;4.446;2023-12-22T02:18:38;11.98;;;2.65;;
46563;SDS011;32291;52.010;4.446;2023-12-22T02:19:49;7.85;;;2.17;;
46563;SDS011;32291;52.010;4.446;2023-12-22T02:20:57;11.43;;;3.00;;
46563;SDS011;32291;52.010;4.446;2023-12-22T02:22:06;12.50;;;3.05;;
46563;SDS011;32291;52.010;4.446;2023-12-22T02:23:26;12.98;;;2.55;;
46563;SDS011;32291;52.010;4.446;2023-12-22T02:24:30;13.07;;;2.63;;
46563;SDS011;32291;52.010;4.446;2023-12-22T02:25:33;6.80;;;2.50;;
46563;SDS011;32291;52.010;4.446;2023-12-22T02:26:42;11.95;;;2.80;;
46563;SDS011;32291;52.010;4.446;2023-12-22T02:27:49;9.80;;;2.03;;
46563;SDS011;32291;52.010;4.446;2023-12-22T02:29:06;15.63;;;3.13;;
46563;SDS011;32291;52.010;4.446;2023-12-22T02:30:19;9.13;;;2.45;;
46563;SDS011;32291;52.010;4.446;2023-12-22T02:31:40;16.27;;;3.65;;
46563;SDS011;32291;52.010;4.446;2023-12-22T02:32:51;9.70;;;2.47;;
46563;SDS011;32291;52.010;4.446;2023-12-22T02:34:04;8.98;;;2.33;;
46563;SDS011;32291;52.010;4.446;2023-12-22T02:35:20;10.75;;;2.75;;
46563;SDS011;32291;52.010;4.446;2023-12-22T02:36:27;12.98;;;2.83;;
46563;SDS011;32291;52.010;4.446;2023-12-22T02:37:33;11.15;;;2.58;;
46563;SDS011;32291;52.010;4.446;2023-12-22T02:38:38;8.88;;;2.67;;
46563;SDS011;32291;52.010;4.446;2023-12-22T02:39:43;13.60;;;2.92;;
46563;SDS011;32291;52.010;4.446;2023-12-22T02:40:47;10.65;;;2.33;;
46563;SDS011;32291;52.010;4.446;2023-12-22T02:41:49;7.68;;;2.55;;
46563;SDS011;32291;52.010;4.446;2023-12-22T02:42:56;9.70;;;2.30;;
46563;SDS011;32291;52.010;4.446;2023-12-22T02:44:00;14.98;;;3.40;;
46563;SDS011;32291;52.010;4.446;2023-12-22T02:45:06;10.50;;;2.88;;
46563;SDS011;32291;52.010;4.446;2023-12-22T02:46:15;9.88;;;2.30;;
46563;SDS011;32291;52.010;4.446;2023-12-22T02:47:18;7.70;;;2.53;;
46563;SDS011;32291;52.010;4.446;2023-12-22T02:48:26;16.00;;;3.05;;
46563;SDS011;32291;52.010;4.446;2023-12-22T02:49:34;9.85;;;2.40;;
46563;SDS011;32291;52.010;4.446;2023-12-22T02:50:36;15.40;;;2.83;;
46563;SDS011;32291;52.010;4.446;2023-12-22T02:51:41;9.88;;;2.50;;
46563;SDS011;32291;52.010;4.446;2023-12-22T02:52:45;15.75;;;2.65;;
46563;SDS011;32291;52.010;4.446;2023-12-22T02:53:47;10.73;;;2.20;;
46563;SDS011;32291;52.010;4.446;2023-12-22T02:54:50;13.98;;;3.47;;
46563;SDS011;32291;52.010;4.446;2023-12-22T02:55:52;17.67;;;3.67;;
46563;SDS011;32291;52.010;4.446;2023-12-22T02:56:55;11.73;;;4.13;;
46563;SDS011;32291;52.010;4.446;2023-12-22T02:57:58;10.75;;;2.50;;
46563;SDS011;32291;52.010;4.446;2023-12-22T02:59:04;13.93;;;3.35;;
46563;SDS011;32291;52.010;4.446;2023-12-22T03:00:17;7.90;;;2.40;;
46563;SDS011;32291;52.010;4.446;2023-12-22T03:01:20;11.57;;;3.35;;
46563;SDS011;32291;52.010;4.446;2023-12-22T03:02:24;15.13;;;2.72;;
46563;SDS011;32291;52.010;4.446;2023-12-22T03:03:27;12.88;;;3.40;;
46563;SDS011;32291;52.010;4.446;2023-12-22T03:04:50;14.02;;;3.13;;
46563;SDS011;32291;52.010;4.446;2023-12-22T03:05:59;13.48;;;2.90;;
46563;SDS011;32291;52.010;4.446;2023-12-22T03:07:06;19.02;;;3.15;;
46563;SDS011;32291;52.010;4.446;2023-12-22T03:08:11;9.68;;;2.65;;
46563;SDS011;32291;52.010;4.446;2023-12-22T03:09:14;12.45;;;3.00;;
46563;SDS011;32291;52.010;4.446;2023-12-22T03:10:17;10.73;;;2.63;;
46563;SDS011;32291;52.010;4.446;2023-12-22T03:11:22;9.80;;;2.33;;
46563;SDS011;32291;52.010;4.446;2023-12-22T03:12:25;11.65;;;2.72;;
46563;SDS011;32291;52.010;4.446;2023-12-22T03:13:32;16.30;;;3.47;;
46563;SDS011;32291;52.010;4.446;2023-12-22T03:14:34;12.98;;;3.47;;
46563;SDS011;32291;52.010;4.446;2023-12-22T03:15:41;14.88;;;3.58;;
46563;SDS011;32291;52.010;4.446;2023-12-22T03:16:44;12.93;;;2.42;;
46563;SDS011;32291;52.010;4.446;2023-12-22T03:17:47;12.40;;;2.63;;
46563;SDS011;32291;52.010;4.446;2023-12-22T03:18:50;12.27;;;2.95;;
46563;SDS011;32291;52.010;4.446;2023-12-22T03:19:56;10.00;;;3.22;;
46563;SDS011;32291;52.010;4.446;2023-12-22T03:21:00;13.02;;;2.78;;
46563;SDS011;32291;52.010;4.446;2023-12-22T03:22:06;14.02;;;3.25;;
46563;SDS011;32291;52.010;4.446;2023-12-22T03:23:12;12.55;;;2.38;;
46563;SDS011;32291;52.010;4.446;2023-12-22T03:24:18;8.77;;;2.22;;
46563;SDS011;32291;52.010;4.446;2023-12-22T03:25:23;10.48;;;2.65;;
46563;SDS011;32291;52.010;4.446;2023-12-22T03:26:43;8.40;;;2.38;;
46563;SDS011;32291;52.010;4.446;2023-12-22T03:27:50;12.43;;;2.92;;
46563;SDS011;32291;52.010;4.446;2023-12-22T03:28:54;10.50;;;2.60;;
46563;SDS011;32291;52.010;4.446;2023-12-22T03:29:57;12.65;;;3.45;;
46563;SDS011;32291;52.010;4.446;2023-12-22T03:31:03;9.75;;;2.90;;
46563;SDS011;32291;52.010;4.446;2023-12-22T03:32:13;14.10;;;3.13;;
46563;SDS011;32291;52.010;4.446;2023-12-22T03:33:17;10.80;;;2.60;;
46563;SDS011;32291;52.010;4.446;2023-12-22T03:34:21;10.30;;;1.70;;
46563;SDS011;32291;52.010;4.446;2023-12-22T03:35:27;11.27;;;2.63;;
46563;SDS011;32291;52.010;4.446;2023-12-22T03:36:30;12.27;;;2.80;;
46563;SDS011;32291;52.010;4.446;2023-12-22T03:37:32;11.52;;;2.70;;
46563;SDS011;32291;52.010;4.446;2023-12-22T03:38:35;11.05;;;2.90;;
46563;SDS011;32291;52.010;4.446;2023-12-22T03:39:40;12.13;;;2.42;;
46563;SDS011;32291;52.010;4.446;2023-12-22T03:40:46;12.38;;;3.17;;
46563;SDS011;32291;52.010;4.446;2023-12-22T03:41:53;10.65;;;2.78;;
46563;SDS011;32291;52.010;4.446;2023-12-22T03:42:59;13.45;;;3.00;;
46563;SDS011;32291;52.010;4.446;2023-12-22T03:44:12;9.77;;;2.90;;
46563;SDS011;32291;52.010;4.446;2023-12-22T03:45:19;10.65;;;2.28;;
46563;SDS011;32291;52.010;4.446;2023-12-22T03:46:22;11.18;;;3.08;;
46563;SDS011;32291;52.010;4.446;2023-12-22T03:47:26;13.50;;;2.70;;
46563;SDS011;32291;52.010;4.446;2023-12-22T03:48:28;14.80;;;3.05;;
46563;SDS011;32291;52.010;4.446;2023-12-22T03:49:31;11.20;;;2.92;;
46563;SDS011;32291;52.010;4.446;2023-12-22T03:50:34;7.88;;;2.47;;
46563;SDS011;32291;52.010;4.446;2023-12-22T03:51:36;12.70;;;2.63;;
46563;SDS011;32291;52.010;4.446;2023-12-22T03:52:43;10.07;;;3.10;;
46563;SDS011;32291;52.010;4.446;2023-12-22T03:53:50;12.95;;;2.75;;
46563;SDS011;32291;52.010;4.446;2023-12-22T03:54:56;11.93;;;2.90;;
46563;SDS011;32291;52.010;4.446;2023-12-22T03:56:08;7.80;;;2.03;;
46563;SDS011;32291;52.010;4.446;2023-12-22T03:57:11;13.73;;;2.75;;
46563;SDS011;32291;52.010;4.446;2023-12-22T03:58:17;9.02;;;2.28;;
46563;SDS011;32291;52.010;4.446;2023-12-22T03:59:35;10.75;;;2.45;;
46563;SDS011;32291;52.010;4.446;2023-12-22T04:00:41;9.40;;;1.60;;
46563;SDS011;32291;52.010;4.446;2023-12-22T04:01:44;7.95;;;2.03;;
46563;SDS011;32291;52.010;4.446;2023-12-22T04:02:54;13.73;;;2.95;;
46563;SDS011;32291;52.010;4.446;2023-12-22T04:03:59;8.50;;;2.47;;
46563;SDS011;32291;52.010;4.446;2023-12-22T04:05:13;6.63;;;1.77;;
46563;SDS011;32291;52.010;4.446;2023-12-22T04:06:20;10.45;;;2.30;;
46563;SDS011;32291;52.010;4.446;2023-12-22T04:07:26;8.65;;;2.28;;
46563;SDS011;32291;52.010;4.446;2023-12-22T04:08:37;11.52;;;2.53;;
46563;SDS011;32291;52.010;4.446;2023-12-22T04:09:54;8.95;;;2.80;;
46563;SDS011;32291;52.010;4.446;2023-12-22T04:10:56;10.85;;;2.40;;
46563;SDS011;32291;52.010;4.446;2023-12-22T04:11:59;10.38;;;2.42;;
46563;SDS011;32291;52.010;4.446;2023-12-22T04:13:06;6.53;;;2.30;;
46563;SDS011;32291;52.010;4.446;2023-12-22T04:14:12;11.38;;;2.50;;
46563;SDS011;32291;52.010;4.446;2023-12-22T04:15:17;10.93;;;3.15;;
46563;SDS011;32291;52.010;4.446;2023-12-22T04:16:21;11.43;;;2.35;;
46563;SDS011;32291;52.010;4.446;2023-12-22T04:17:44;11.68;;;2.58;;
46563;SDS011;32291;52.010;4.446;2023-12-22T04:18:47;10.50;;;2.70;;
46563;SDS011;32291;52.010;4.446;2023-12-22T04:19:51;11.77;;;2.53;;
46563;SDS011;32291;52.010;4.446;2023-12-22T04:20:57;8.88;;;2.35;;
46563;SDS011;32291;52.010;4.446;2023-12-22T04:22:00;10.48;;;2.35;;
46563;SDS011;32291;52.010;4.446;2023-12-22T04:24:45;12.27;;;2.53;;
46563;SDS011;32291;52.010;4.446;2023-12-22T04:25:48;13.18;;;2.17;;
46563;SDS011;32291;52.010;4.446;2023-12-22T04:26:52;14.80;;;2.85;;
46563;SDS011;32291;52.010;4.446;2023-12-22T04:27:55;11.32;;;2.45;;
46563;SDS011;32291;52.010;4.446;2023-12-22T04:28:58;10.80;;;2.50;;
46563;SDS011;32291;52.010;4.446;2023-12-22T04:30:04;12.40;;;2.65;;
46563;SDS011;32291;52.010;4.446;2023-12-22T04:31:08;15.23;;;3.03;;
46563;SDS011;32291;52.010;4.446;2023-12-22T04:32:11;15.40;;;3.45;;
46563;SDS011;32291;52.010;4.446;2023-12-22T04:33:14;14.52;;;3.67;;
46563;SDS011;32291;52.010;4.446;2023-12-22T04:34:20;13.15;;;3.08;;
46563;SDS011;32291;52.010;4.446;2023-12-22T04:35:23;10.25;;;2.65;;
46563;SDS011;32291;52.010;4.446;2023-12-22T04:36:25;8.75;;;2.90;;
46563;SDS011;32291;52.010;4.446;2023-12-22T04:37:28;11.65;;;3.17;;
46563;SDS011;32291;52.010;4.446;2023-12-22T04:38:31;16.10;;;3.25;;
46563;SDS011;32291;52.010;4.446;2023-12-22T04:39:35;11.98;;;2.30;;
46563;SDS011;32291;52.010;4.446;2023-12-22T04:40:43;14.05;;;3.75;;
46563;SDS011;32291;52.010;4.446;2023-12-22T04:41:45;11.02;;;2.50;;
46563;SDS011;32291;52.010;4.446;2023-12-22T04:42:48;13.65;;;3.25;;
46563;SDS011;32291;52.010;4.446;2023-12-22T04:43:51;10.00;;;2.72;;
46563;SDS011;32291;52.010;4.446;2023-12-22T04:44:59;11.48;;;2.78;;
46563;SDS011;32291;52.010;4.446;2023-12-22T04:46:02;9.07;;;3.45;;
46563;SDS011;32291;52.010;4.446;2023-12-22T04:47:05;14.95;;;3.05;;
46563;SDS011;32291;52.010;4.446;2023-12-22T04:48:08;14.75;;;3.83;;
46563;SDS011;32291;52.010;4.446;2023-12-22T04:49:24;13.93;;;3.08;;
46563;SDS011;32291;52.010;4.446;2023-12-22T04:50:31;8.45;;;2.10;;
46563;SDS011;32291;52.010;4.446;2023-12-22T04:51:37;14.05;;;3.30;;
46563;SDS011;32291;52.010;4.446;2023-12-22T04:52:40;7.70;;;2.92;;
46563;SDS011;32291;52.010;4.446;2023-12-22T04:53:43;13.65;;;2.40;;
46563;SDS011;32291;52.010;4.446;2023-12-22T04:54:51;15.05;;;3.67;;
46563;SDS011;32291;52.010;4.446;2023-12-22T04:55:54;13.35;;;3.08;;
46563;SDS011;32291;52.010;4.446;2023-12-22T04:56:57;12.43;;;3.13;;
46563;SDS011;32291;52.010;4.446;2023-12-22T04:58:02;16.30;;;3.45;;
46563;SDS011;32291;52.010;4.446;2023-12-22T04:59:05;14.68;;;3.45;;
46563;SDS011;32291;52.010;4.446;2023-12-22T05:00:08;17.98;;;3.00;;
46563;SDS011;32291;52.010;4.446;2023-12-22T05:01:14;12.18;;;3.10;;
46563;SDS011;32291;52.010;4.446;2023-12-22T05:02:20;14.25;;;2.85;;
46563;SDS011;32291;52.010;4.446;2023-12-22T05:03:23;9.27;;;3.13;;
46563;SDS011;32291;52.010;4.446;2023-12-22T05:04:26;11.57;;;2.97;;
46563;SDS011;32291;52.010;4.446;2023-12-22T05:05:29;12.30;;;3.55;;
46563;SDS011;32291;52.010;4.446;2023-12-22T05:06:36;14.27;;;3.30;;
46563;SDS011;32291;52.010;4.446;2023-12-22T05:07:38;13.88;;;2.90;;
46563;SDS011;32291;52.010;4.446;2023-12-22T05:08:44;13.82;;;3.47;;
46563;SDS011;32291;52.010;4.446;2023-12-22T05:09:48;15.35;;;2.88;;
46563;SDS011;32291;52.010;4.446;2023-12-22T05:10:53;17.38;;;3.72;;
46563;SDS011;32291;52.010;4.446;2023-12-22T05:11:56;12.18;;;3.60;;
46563;SDS011;32291;52.010;4.446;2023-12-22T05:13:04;13.68;;;3.45;;
46563;SDS011;32291;52.010;4.446;2023-12-22T05:14:12;11.45;;;3.13;;
46563;SDS011;32291;52.010;4.446;2023-12-22T05:15:17;11.98;;;2.70;;
46563;SDS011;32291;52.010;4.446;2023-12-22T05:16:20;14.68;;;3.80;;
46563;SDS011;32291;52.010;4.446;2023-12-22T05:17:22;10.43;;;3.50;;
46563;SDS011;32291;52.010;4.446;2023-12-22T05:18:25;12.73;;;2.33;;
46563;SDS011;32291;52.010;4.446;2023-12-22T05:19:43;15.93;;;2.72;;
46563;SDS011;32291;52.010;4.446;2023-12-22T05:20:49;17.67;;;4.25;;
46563;SDS011;32291;52.010;4.446;2023-12-22T05:21:51;10.55;;;2.65;;
46563;SDS011;32291;52.010;4.446;2023-12-22T05:22:57;12.60;;;2.95;;
46563;SDS011;32291;52.010;4.446;2023-12-22T05:24:00;18.65;;;3.47;;
46563;SDS011;32291;52.010;4.446;2023-12-22T05:25:07;12.02;;;3.22;;
46563;SDS011;32291;52.010;4.446;2023-12-22T05:26:18;15.38;;;3.72;;
46563;SDS011;32291;52.010;4.446;2023-12-22T05:27:25;16.67;;;4.00;;
46563;SDS011;32291;52.010;4.446;2023-12-22T05:28:30;16.17;;;3.70;;
46563;SDS011;32291;52.010;4.446;2023-12-22T05:29:33;21.20;;;4.45;;
46563;SDS011;32291;52.010;4.446;2023-12-22T05:30:37;22.50;;;4.32;;
46563;SDS011;32291;52.010;4.446;2023-12-22T05:31:39;21.98;;;4.43;;
46563;SDS011;32291;52.010;4.446;2023-12-22T05:32:43;17.05;;;5.32;;
46563;SDS011;32291;52.010;4.446;2023-12-22T05:33:47;19.75;;;4.32;;
46563;SDS011;32291;52.010;4.446;2023-12-22T05:34:49;22.02;;;4.45;;
46563;SDS011;32291;52.010;4.446;2023-12-22T05:35:52;16.77;;;4.78;;
46563;SDS011;32291;52.010;4.446;2023-12-22T05:36:55;16.98;;;4.13;;
46563;SDS011;32291;52.010;4.446;2023-12-22T05:38:02;17.35;;;4.07;;
46563;SDS011;32291;52.010;4.446;2023-12-22T05:39:05;20.80;;;4.72;;
46563;SDS011;32291;52.010;4.446;2023-12-22T05:40:11;16.10;;;4.75;;
46563;SDS011;32291;52.010;4.446;2023-12-22T05:41:17;20.10;;;4.70;;
46563;SDS011;32291;52.010;4.446;2023-12-22T05:42:19;24.80;;;5.40;;
46563;SDS011;32291;52.010;4.446;2023-12-22T05:43:27;13.63;;;3.92;;
46563;SDS011;32291;52.010;4.446;2023-12-22T05:44:31;24.50;;;5.25;;
46563;SDS011;32291;52.010;4.446;2023-12-22T05:45:36;21.90;;;5.10;;
46563;SDS011;32291;52.010;4.446;2023-12-22T05:46:44;14.63;;;3.83;;
46563;SDS011;32291;52.010;4.446;2023-12-22T05:47:51;19.98;;;6.00;;
46563;SDS011;32291;52.010;4.446;2023-12-22T05:48:55;19.52;;;4.72;;
46563;SDS011;32291;52.010;4.446;2023-12-22T05:50:04;22.23;;;4.68;;
46563;SDS011;32291;52.010;4.446;2023-12-22T05:51:10;18.13;;;4.70;;
46563;SDS011;32291;52.010;4.446;2023-12-22T05:52:17;21.92;;;5.03;;
46563;SDS011;32291;52.010;4.446;2023-12-22T05:53:21;22.75;;;5.68;;
46563;SDS011;32291;52.010;4.446;2023-12-22T05:54:24;26.25;;;6.00;;
46563;SDS011;32291;52.010;4.446;2023-12-22T05:55:27;24.58;;;5.15;;
46563;SDS011;32291;52.010;4.446;2023-12-22T05:56:31;21.10;;;6.07;;
46563;SDS011;32291;52.010;4.446;2023-12-22T05:57:37;26.83;;;5.72;;
46563;SDS011;32291;52.010;4.446;2023-12-22T05:58:39;25.40;;;5.90;;
46563;SDS011;32291;52.010;4.446;2023-12-22T05:59:47;19.33;;;3.90;;
46563;SDS011;32291;52.010;4.446;2023-12-22T06:00:55;30.73;;;6.18;;
46563;SDS011;32291;52.010;4.446;2023-12-22T06:02:00;20.52;;;5.78;;
46563;SDS011;32291;52.010;4.446;2023-12-22T06:03:05;25.38;;;5.30;;
46563;SDS011;32291;52.010;4.446;2023-12-22T06:04:11;25.13;;;5.70;;
46563;SDS011;32291;52.010;4.446;2023-12-22T06:05:15;26.73;;;5.75;;
46563;SDS011;32291;52.010;4.446;2023-12-22T06:06:18;28.35;;;6.78;;
46563;SDS011;32291;52.010;4.446;2023-12-22T06:07:20;29.23;;;6.53;;
46563;SDS011;32291;52.010;4.446;2023-12-22T06:08:23;23.17;;;4.97;;
46563;SDS011;32291;52.010;4.446;2023-12-22T06:09:40;21.92;;;5.20;;
46563;SDS011;32291;52.010;4.446;2023-12-22T06:10:43;22.05;;;5.30;;
46563;SDS011;32291;52.010;4.446;2023-12-22T06:11:46;17.35;;;5.80;;
46563;SDS011;32291;52.010;4.446;2023-12-22T06:12:49;32.78;;;6.97;;
46563;SDS011;32291;52.010;4.446;2023-12-22T06:13:51;28.33;;;7.28;;
46563;SDS011;32291;52.010;4.446;2023-12-22T06:14:54;27.50;;;6.22;;
46563;SDS011;32291;52.010;4.446;2023-12-22T06:15:58;25.50;;;6.20;;
46563;SDS011;32291;52.010;4.446;2023-12-22T06:17:09;25.17;;;5.10;;
46563;SDS011;32291;52.010;4.446;2023-12-22T06:18:24;27.70;;;6.03;;
46563;SDS011;32291;52.010;4.446;2023-12-22T06:19:29;25.02;;;5.65;;
46563;SDS011;32291;52.010;4.446;2023-12-22T06:20:31;25.40;;;5.28;;
46563;SDS011;32291;52.010;4.446;2023-12-22T06:21:36;23.65;;;5.53;;
46563;SDS011;32291;52.010;4.446;2023-12-22T06:22:42;26.13;;;5.63;;
46563;SDS011;32291;52.010;4.446;2023-12-22T06:23:44;25.42;;;5.72;;
46563;SDS011;32291;52.010;4.446;2023-12-22T06:24:52;27.85;;;7.05;;
46563;SDS011;32291;52.010;4.446;2023-12-22T06:25:59;28.25;;;6.30;;
46563;SDS011;32291;52.010;4.446;2023-12-22T06:27:04;24.50;;;4.95;;
46563;SDS011;32291;52.010;4.446;2023-12-22T06:28:11;28.05;;;6.18;;
46563;SDS011;32291;52.010;4.446;2023-12-22T06:29:25;24.08;;;5.50;;
46563;SDS011;32291;52.010;4.446;2023-12-22T06:30:34;24.23;;;4.85;;
46563;SDS011;32291;52.010;4.446;2023-12-22T06:31:40;22.77;;;5.60;;
46563;SDS011;32291;52.010;4.446;2023-12-22T06:32:45;27.67;;;5.60;;